Time;durP1;ratioP1;P1;durP2;ratioP2;P2;SDS_P1;SDS_P2;PMS_P1;PMS_P2;Temp;Humidity;BMP_temperature;BMP_pressure;BME280_temperature;BME280_humidity;BME280_pressure;Samples;Min_cycle;Max_cycle;Signal;HPM_P1;HPM_P2
2022/01/24 00:01:30;;;;;;;;;37.75;36.25;;;;;7.33;56.79;102744.28;5103405;27;45449;-70
2022/01/24 00:03:58;;;;;;;;;47.75;37.50;;;;;7.45;57.08;102768.16;5106256;27;45392;-71
2022/01/24 00:06:24;;;;;;;;;43.25;36.50;;;;;6.91;57.05;102665.03;5106800;27;45336;-71
2022/01/24 00:08:50;;;;;;;;;43.00;32.25;;;;;7.35;57.18;102745.31;5104974;27;45499;-69
2022/01/24 00:11:19;;;;;;;;;42.50;32.25;;;;;7.45;57.21;102764.59;5100792;27;45393;-70
2022/01/24 00:16:45;;;;;;;;;40.50;31.25;;;;;7.40;57.44;102755.38;5120744;27;45355;-70
2022/01/24 00:27:20;;;;;;;;;35.50;26.50;;;;;7.28;57.79;102744.78;5098604;27;45683;-70
2022/01/24 00:29:46;;;;;;;;;41.25;34.00;;;;;7.03;57.54;102699.53;5111435;27;45701;-70
2022/01/24 00:32:11;;;;;;;;;52.00;28.00;;;;;7.18;57.37;102728.16;5118624;27;46909;-70
2022/01/24 00:34:36;;;;;;;;;39.75;35.75;;;;;7.32;57.08;102754.81;5117564;27;45476;-69
2022/01/24 00:37:02;;;;;;;;;37.50;31.75;;;;;7.33;57.36;102738.97;5117986;27;45391;-69
2022/01/24 00:39:28;;;;;;;;;45.00;32.50;;;;;7.36;57.41;102735.63;5118325;27;45271;-69
2022/01/24 00:47:09;;;;;;;;;35.75;30.50;;;;;7.23;57.35;102706.31;5106259;27;46492;-70
2022/01/24 00:54:44;;;;;;;;;39.25;30.50;;;;;7.26;57.56;102725.09;5123453;27;45357;-69
2022/01/24 00:57:10;;;;;;;;;48.50;40.25;;;;;7.29;57.64;102726.28;5124360;27;45401;-70
2022/01/24 00:59:36;;;;;;;;;36.00;29.50;;;;;7.12;57.42;102684.25;5120972;27;45414;-70
2022/01/24 01:02:03;;;;;;;;;43.50;32.25;;;;;7.30;57.22;102725.44;5111699;27;45360;-70
2022/01/24 01:18:26;;;;;;;;;31.00;22.50;;;;;7.21;57.42;102724.81;5108535;27;45382;-71
2022/01/24 01:23:28;;;;;;;;;38.75;30.25;;;;;7.15;57.66;102711.06;5116296;27;45507;-72
2022/01/24 01:25:54;;;;;;;;;41.00;32.25;;;;;7.13;57.57;102713.59;5117874;27;45498;-69
2022/01/24 01:28:21;;;;;;;;;41.00;31.75;;;;;7.13;57.44;102713.59;5125795;27;45699;-69
2022/01/24 01:30:50;;;;;;;;;35.50;26.25;;;;;7.14;57.72;102712.81;5119535;27;45334;-71
2022/01/24 01:57:11;;;;;;;;;35.50;27.00;;;;;6.99;57.94;102720.56;5114093;27;45405;-69
2022/01/24 01:59:37;;;;;;;;;37.75;24.75;;;;;7.00;57.32;102710.88;5117131;27;45399;-70
2022/01/24 02:02:02;;;;;;;;;40.25;27.25;;;;;7.01;57.73;102715.38;5112391;27;45353;-69
2022/01/24 02:04:28;;;;;;;;;40.25;28.75;;;;;7.00;57.93;102719.75;5110871;27;45339;-73
2022/01/24 02:06:53;;;;;;;;;35.25;26.25;;;;;6.87;57.63;102701.09;5117565;27;45707;-70
2022/01/24 02:09:18;;;;;;;;;37.00;28.25;;;;;6.90;57.92;102706.63;5110558;27;45441;-73
2022/01/24 02:11:44;;;;;;;;;34.25;29.00;;;;;6.95;57.86;102725.56;5117490;27;45491;-71
2022/01/24 02:14:15;;;;;;;;;37.75;31.75;;;;;6.83;57.84;102710.56;5109978;27;46233;-70
2022/01/24 02:21:48;;;;;;;;;37.00;28.50;;;;;6.97;57.62;102719.53;5120077;27;45391;-69
2022/01/24 02:24:17;;;;;;;;;32.75;25.50;;;;;6.91;57.98;102711.13;5126943;27;47138;-69
2022/01/24 02:26:42;;;;;;;;;35.50;28.25;;;;;6.93;57.79;102709.50;5125812;27;45090;-69
2022/01/24 02:29:20;;;;;;;;;34.75;24.25;;;;;6.96;57.79;102712.41;5118817;27;45342;-70
2022/01/24 02:31:49;;;;;;;;;38.00;32.75;;;;;6.96;57.76;102712.41;5127596;27;45472;-71
2022/01/24 02:34:22;;;;;;;;;34.75;26.25;;;;;6.95;57.74;102707.88;5128582;27;45109;-70
2022/01/24 02:36:48;;;;;;;;;32.25;27.25;;;;;6.97;57.56;102700.03;5126071;27;45358;-70
2022/01/24 02:49:54;;;;;;;;;28.00;23.50;;;;;6.87;57.44;102686.88;5113331;27;45386;-73
2022/01/24 02:52:24;;;;;;;;;31.75;30.25;;;;;6.90;57.92;102688.03;5121998;27;45372;-71
2022/01/24 02:54:49;;;;;;;;;27.00;22.75;;;;;6.88;57.56;102678.09;5131176;27;45075;-71
2022/01/24 02:57:15;;;;;;;;;33.00;32.00;;;;;6.91;57.97;102683.63;5118134;27;45408;-71
2022/01/24 02:59:41;;;;;;;;;42.75;32.75;;;;;6.91;57.92;102680.97;5127992;27;45493;-70
2022/01/24 03:02:06;;;;;;;;;27.00;25.00;;;;;6.71;57.72;102645.91;5114981;27;45248;-71
2022/01/24 03:04:32;;;;;;;;;34.50;27.50;;;;;6.90;57.99;102682.72;5112397;27;45155;-70
2022/01/24 03:06:57;;;;;;;;;41.50;27.50;;;;;6.90;57.76;102682.72;5124586;27;45227;-71
2022/01/24 03:09:23;;;;;;;;;37.25;26.50;;;;;6.90;57.34;102679.16;5112482;27;45157;-70
2022/01/24 03:12:06;;;;;;;;;39.00;28.75;;;;;6.58;57.67;102621.94;5112986;27;45228;-71
2022/01/24 03:14:35;;;;;;;;;34.25;26.00;;;;;6.80;57.91;102675.81;5101882;27;46062;-70
2022/01/24 03:17:03;;;;;;;;;32.00;27.75;;;;;6.66;57.91;102644.66;5108448;27;45286;-71
2022/01/24 03:19:28;;;;;;;;;37.25;25.75;;;;;6.88;57.79;102670.13;5107226;27;45342;-72
2022/01/24 03:21:54;;;;;;;;;44.00;30.25;;;;;6.68;57.81;102640.38;5106245;27;45548;-69
2022/01/24 03:24:20;;;;;;;;;26.75;23.00;;;;;6.83;57.76;102664.50;5111547;27;47059;-70
2022/01/24 03:26:45;;;;;;;;;35.00;26.00;;;;;6.80;57.92;102659.88;5098793;27;45351;-70
2022/01/24 03:29:11;;;;;;;;;38.00;30.75;;;;;6.78;57.82;102652.59;5110469;27;45058;-71
2022/01/24 03:31:38;;;;;;;;;40.75;27.25;;;;;6.74;57.60;102643.47;5124977;27;45479;-70
2022/01/24 03:34:03;;;;;;;;;39.25;32.50;;;;;6.91;57.82;102662.38;5131906;27;45239;-71
2022/01/24 03:36:29;;;;;;;;;31.50;26.50;;;;;6.64;57.53;102622.38;5130540;27;45365;-69
2022/01/24 03:38:55;;;;;;;;;30.25;25.25;;;;;6.91;57.94;102668.59;5110882;27;45020;-70
2022/01/24 03:41:21;;;;;;;;;33.00;32.00;;;;;6.71;57.57;102629.97;5112842;27;45093;-69
2022/01/24 03:43:46;;;;;;;;;32.50;28.75;;;;;6.88;57.69;102664.81;5104748;27;45548;-70
2022/01/24 03:48:42;;;;;;;;;34.25;26.75;;;;;6.78;57.48;102644.63;5119538;27;44995;-69
2022/01/24 03:51:08;;;;;;;;;27.25;22.75;;;;;6.83;57.43;102660.09;5116595;27;45212;-71
2022/01/24 03:53:34;;;;;;;;;34.00;27.75;;;;;6.72;57.76;102644.19;5106422;27;45534;-70
2022/01/24 03:55:59;;;;;;;;;34.00;30.25;;;;;6.72;57.47;102647.75;5116684;27;45042;-70
2022/01/24 03:58:25;;;;;;;;;33.00;27.00;;;;;6.69;57.70;102642.22;5108385;27;45785;-70
2022/01/24 04:00:51;;;;;;;;;40.75;31.50;;;;;6.74;57.51;102653.19;5113125;27;45436;-71
2022/01/24 04:03:17;;;;;;;;;42.25;26.75;;;;;6.61;57.90;102635.44;5123690;27;45331;-71
2022/01/24 04:05:43;;;;;;;;;39.50;30.00;;;;;6.74;57.86;102650.53;5125115;27;45321;-69
2022/01/24 04:08:08;;;;;;;;;32.50;28.25;;;;;6.73;57.97;102657.59;5133833;27;45017;-69
2022/01/24 04:10:41;;;;;;;;;34.00;30.25;;;;;6.70;58.00;102646.75;5125872;27;45470;-70
2022/01/24 04:13:23;;;;;;;;;38.50;31.25;;;;;6.71;57.91;102640.59;5124436;27;45223;-69
2022/01/24 04:18:39;;;;;;;;;43.25;33.75;;;;;6.68;57.91;102637.72;5133840;27;45054;-71
2022/01/24 04:24:10;;;;;;;;;33.75;30.00;;;;;6.73;57.96;102643.38;5064947;27;46374;-70
2022/01/24 04:26:37;;;;;;;;;40.50;31.50;;;;;6.63;58.03;102633.81;5112831;27;45074;-70
2022/01/24 04:29:04;;;;;;;;;41.75;27.75;;;;;6.62;57.76;102642.59;5126131;27;44945;-72
2022/01/24 04:31:30;;;;;;;;;43.25;30.25;;;;;6.61;57.89;102649.63;5125936;27;44939;-70
2022/01/24 04:33:56;;;;;;;;;34.50;29.50;;;;;6.39;58.18;102615.28;5131069;27;45553;-71
2022/01/24 04:36:22;;;;;;;;;31.25;25.50;;;;;6.61;57.98;102648.72;5121413;27;45398;-71
2022/01/24 04:38:48;;;;;;;;;33.00;30.75;;;;;6.60;58.05;102644.19;5111017;27;45467;-71
2022/01/24 04:41:19;;;;;;;;;35.00;30.00;;;;;6.62;57.86;102651.47;5117552;27;45650;-71
2022/01/24 04:44:01;;;;;;;;;26.25;24.00;;;;;5.97;58.10;102544.94;5116611;27;45516;-71
2022/01/24 04:56:29;;;;;;;;;40.00;31.75;;;;;6.45;57.83;102631.66;5131998;27;44905;-71
2022/01/24 04:58:55;;;;;;;;;41.00;32.75;;;;;6.40;58.21;102619.78;5130735;27;45310;-70
2022/01/24 05:01:20;;;;;;;;;36.00;32.50;;;;;6.54;58.19;102647.34;5122193;27;45381;-70
2022/01/24 05:03:46;;;;;;;;;36.25;32.25;;;;;6.40;58.26;102617.13;5119772;27;45191;-70
2022/01/24 05:06:11;;;;;;;;;31.50;27.00;;;;;6.51;58.28;102652.41;5132159;27;45474;-70
2022/01/24 05:08:36;;;;;;;;;35.75;29.00;;;;;6.50;58.19;102647.00;5123440;27;45368;-69
2022/01/24 05:11:15;;;;;;;;;30.75;27.75;;;;;6.33;58.25;102619.22;5132199;27;45088;-71
2022/01/24 05:24:20;;;;;;;;;30.25;27.25;;;;;6.24;58.63;102614.16;5121499;27;45539;-71
2022/01/24 05:26:48;;;;;;;;;35.75;30.50;;;;;6.40;58.29;102646.34;5117778;27;45798;-70
2022/01/24 05:29:14;;;;;;;;;33.50;26.50;;;;;6.43;58.36;102648.28;5115322;27;45460;-70
2022/01/24 05:31:40;;;;;;;;;24.75;20.75;;;;;6.40;58.75;102632.13;5118025;27;45325;-70
2022/01/24 05:34:05;;;;;;;;;31.00;27.75;;;;;6.49;58.25;102640.78;5110975;27;45319;-71
2022/01/24 05:36:30;;;;;;;;;35.75;35.00;;;;;6.49;58.12;102645.19;5112769;27;45275;-71
2022/01/24 05:38:57;;;;;;;;;34.50;27.75;;;;;6.50;58.35;102642.63;5109548;27;45357;-70
2022/01/24 05:41:23;;;;;;;;;43.00;31.50;;;;;6.25;58.20;102598.34;5107935;27;45304;-69
2022/01/24 05:43:49;;;;;;;;;38.75;31.75;;;;;6.49;58.25;102637.22;5103238;27;45350;-69
2022/01/24 05:46:14;;;;;;;;;34.50;31.00;;;;;6.45;58.58;102631.66;5113622;27;45348;-70
2022/01/24 05:48:39;;;;;;;;;39.75;28.75;;;;;6.45;58.15;102630.72;5098084;27;45517;-69
2022/01/24 05:51:05;;;;;;;;;39.75;28.75;;;;;6.43;58.33;102633.28;5103000;27;45399;-69
2022/01/24 05:53:30;;;;;;;;;34.25;31.00;;;;;6.21;58.48;102584.75;5118590;27;45713;-69
2022/01/24 05:55:55;;;;;;;;;32.75;28.50;;;;;6.51;58.12;102635.56;5105759;27;45774;-69
2022/01/24 05:58:21;;;;;;;;;41.50;31.00;;;;;6.48;58.17;102640.66;5122792;27;45827;-69
2022/01/24 06:00:46;;;;;;;;;32.50;24.50;;;;;6.05;58.01;102572.97;5122317;27;45380;-70
2022/01/24 06:03:11;;;;;;;;;36.00;26.75;;;;;6.34;58.66;102632.59;5120796;27;46488;-69
2022/01/24 06:05:37;;;;;;;;;39.75;33.75;;;;;6.45;57.88;102639.63;5121143;27;45279;-70
2022/01/24 06:08:02;;;;;;;;;35.25;24.00;;;;;6.16;57.88;102584.38;5118950;27;45347;-70
2022/01/24 06:10:28;;;;;;;;;33.75;30.50;;;;;6.47;58.10;102629.13;5102583;27;45428;-71
2022/01/24 06:12:53;;;;;;;;;37.00;32.75;;;;;6.49;58.30;102634.56;5101705;27;46288;-72
2022/01/24 06:15:18;;;;;;;;;37.50;30.50;;;;;6.48;58.05;102648.63;5099508;27;45543;-71
2022/01/24 06:17:44;;;;;;;;;37.00;32.75;;;;;6.38;57.80;102628.44;5125035;27;45186;-71
2022/01/24 06:20:09;;;;;;;;;56.50;41.75;;;;;6.35;58.05;102628.22;5112969;27;45244;-71
2022/01/24 06:22:39;;;;;;;;;33.75;28.00;;;;;6.02;58.41;102570.13;5095089;27;46333;-72
2022/01/24 06:25:07;;;;;;;;;44.50;31.50;;;;;5.94;58.30;102563.28;5102400;27;45563;-72
2022/01/24 06:27:32;;;;;;;;;33.50;29.50;;;;;6.36;58.27;102638.03;5108821;27;45393;-70
2022/01/24 06:29:58;;;;;;;;;38.00;26.00;;;;;6.40;58.18;102650.72;5104756;27;45450;-70
2022/01/24 06:32:23;;;;;;;;;33.25;27.75;;;;;6.40;58.28;102654.31;5107367;27;47236;-70
2022/01/24 06:34:48;;;;;;;;;32.50;30.75;;;;;6.41;58.03;102656.13;5109305;27;45496;-69
2022/01/24 06:37:14;;;;;;;;;46.25;34.75;;;;;6.26;57.94;102634.69;5114908;27;45300;-72
2022/01/24 06:39:39;;;;;;;;;43.50;36.75;;;;;6.35;58.21;102645.09;5115075;27;45461;-71
2022/01/24 06:42:14;;;;;;;;;39.75;33.00;;;;;6.45;58.20;102651.97;5114551;27;45980;-72
2022/01/24 06:44:40;;;;;;;;;50.25;39.00;;;;;6.43;57.99;102654.53;5123882;27;45186;-72
2022/01/24 06:47:06;;;;;;;;;56.50;42.50;;;;;6.26;58.02;102632.03;5130323;27;45037;-71
2022/01/24 06:49:32;;;;;;;;;36.50;31.00;;;;;6.36;58.54;102670.81;5128669;27;45338;-72
2022/01/24 06:51:57;;;;;;;;;34.25;27.75;;;;;6.22;58.24;102631.69;5132033;27;46214;-70
2022/01/24 06:54:24;;;;;;;;;34.75;31.50;;;;;6.39;58.18;102663.06;5131107;27;45353;-70
2022/01/24 06:56:49;;;;;;;;;53.75;42.75;;;;;6.36;57.99;102657.53;5132513;27;45168;-70
2022/01/24 06:59:14;;;;;;;;;48.25;37.00;;;;;6.25;58.39;102639.88;5128251;27;45077;-71
2022/01/24 07:01:40;;;;;;;;;32.50;25.25;;;;;6.24;58.08;102641.63;5108996;27;45411;-72
2022/01/24 07:04:06;;;;;;;;;32.75;24.75;;;;;6.40;58.56;102656.97;5116761;27;45337;-71
2022/01/24 07:06:31;;;;;;;;;40.25;29.75;;;;;6.43;58.31;102662.50;5102249;27;45823;-71
2022/01/24 07:08:56;;;;;;;;;47.50;36.00;;;;;6.40;58.37;102656.97;5122478;27;45612;-69
2022/01/24 07:11:22;;;;;;;;;42.50;34.50;;;;;6.16;58.53;102617.97;5127553;27;45996;-71
2022/01/24 07:13:47;;;;;;;;;45.50;34.00;;;;;6.25;58.40;102653.16;5112241;27;45107;-71
2022/01/24 07:16:13;;;;;;;;;39.50;35.50;;;;;6.34;58.71;102667.13;5115899;27;45215;-71
2022/01/24 07:18:58;;;;;;;;;45.00;32.25;;;;;6.36;58.50;102667.22;5109137;27;45582;-71
2022/01/24 07:21:23;;;;;;;;;36.00;31.50;;;;;6.39;58.22;102667.47;5107069;27;46239;-70
2022/01/24 07:23:48;;;;;;;;;46.25;34.25;;;;;6.27;58.29;102657.78;5109760;27;45477;-70
2022/01/24 07:26:14;;;;;;;;;70.50;54.75;;;;;6.32;57.96;102655.47;5125991;27;45494;-72
2022/01/24 07:28:40;;;;;;;;;64.75;48.00;;;;;6.35;58.38;102661.00;5095882;27;45611;-70
2022/01/24 07:31:05;;;;;;;;;48.50;39.50;;;;;6.42;58.31;102665.97;5113789;27;48037;-72
2022/01/24 07:33:32;;;;;;;;;49.00;37.50;;;;;6.42;58.35;102662.38;5114405;27;45502;-72
2022/01/24 07:35:57;;;;;;;;;44.00;35.50;;;;;6.40;57.99;102667.59;5115145;27;46059;-71
2022/01/24 07:38:23;;;;;;;;;53.00;39.75;;;;;6.31;58.21;102642.09;5116354;27;45391;-70
2022/01/24 07:40:53;;;;;;;;;43.50;32.50;;;;;6.40;58.21;102656.97;5115570;27;46119;-71
2022/01/24 07:43:18;;;;;;;;;41.50;36.00;;;;;6.40;58.15;102661.31;5117120;27;45401;-70
2022/01/24 07:45:46;;;;;;;;;51.00;37.75;;;;;6.38;58.15;102666.53;5116740;27;45959;-72
2022/01/24 07:48:13;;;;;;;;;73.00;51.75;;;;;6.38;58.01;102663.88;5116001;27;45334;-71
2022/01/24 07:50:41;;;;;;;;;50.25;40.25;;;;;6.38;58.57;102668.25;5117102;27;45449;-72
2022/01/24 07:53:12;;;;;;;;;61.75;39.50;;;;;6.40;58.15;102658.66;5117167;27;45364;-70
2022/01/24 07:55:38;;;;;;;;;49.00;37.50;;;;;6.46;57.82;102675.97;5117177;27;45528;-71
2022/01/24 07:58:04;;;;;;;;;54.75;39.00;;;;;6.34;58.02;102653.84;5117024;27;45541;-71
2022/01/24 08:00:29;;;;;;;;;53.50;45.50;;;;;6.34;57.87;102659.16;5115188;27;45488;-70
2022/01/24 08:02:57;;;;;;;;;52.50;42.75;;;;;6.40;57.97;102670.25;5116557;27;45641;-70
2022/01/24 08:05:23;;;;;;;;;45.75;37.00;;;;;6.42;57.75;102681.88;5117252;27;45702;-70
2022/01/24 08:07:48;;;;;;;;;48.75;37.25;;;;;6.19;57.79;102645.66;5117241;27;45456;-69
2022/01/24 08:10:13;;;;;;;;;61.50;47.25;;;;;6.41;58.60;102681.78;5116820;27;45950;-70
2022/01/24 08:12:39;;;;;;;;;52.75;40.25;;;;;6.31;57.83;102669.53;5116710;27;45394;-71
2022/01/24 08:15:06;;;;;;;;;52.50;39.50;;;;;6.39;58.02;102680.75;5116959;27;45395;-71
2022/01/24 08:17:31;;;;;;;;;49.50;40.00;;;;;6.41;58.03;102679.13;5117397;27;45381;-71
2022/01/24 08:19:58;;;;;;;;;54.50;38.25;;;;;6.43;57.61;102685.44;5116747;27;45418;-71
2022/01/24 08:22:24;;;;;;;;;53.25;41.50;;;;;6.46;57.81;102696.31;5115784;27;45533;-70
2022/01/24 08:24:51;;;;;;;;;57.00;43.50;;;;;6.43;57.65;102686.41;5117103;27;45637;-72
2022/01/24 08:27:18;;;;;;;;;57.75;42.75;;;;;6.46;57.86;102691.91;5117281;27;45510;-72
2022/01/24 08:29:48;;;;;;;;;48.75;40.00;;;;;6.41;58.06;102682.69;5116557;27;45909;-70
2022/01/24 08:32:14;;;;;;;;;60.25;48.25;;;;;6.57;58.45;102691.81;5116456;27;45365;-71
2022/01/24 08:34:39;;;;;;;;;52.00;38.00;;;;;6.56;57.61;102693.50;5115661;27;45268;-70
2022/01/24 08:37:06;;;;;;;;;50.00;39.50;;;;;6.55;57.91;102691.69;5116353;27;45358;-70
2022/01/24 08:39:31;;;;;;;;;58.75;40.50;;;;;6.37;57.74;102664.69;5116161;27;46108;-71
2022/01/24 08:42:17;;;;;;;;;49.50;38.25;;;;;6.58;57.42;102701.59;5116572;27;45363;-71
2022/01/24 08:47:25;;;;;;;;;51.25;39.75;;;;;6.56;57.46;102681.97;5116917;27;45335;-71
2022/01/24 08:49:51;;;;;;;;;45.75;38.00;;;;;6.64;57.59;102700.31;5116504;27;46306;-70
2022/01/24 08:52:17;;;;;;;;;42.00;36.00;;;;;6.55;57.54;102680.13;5116199;27;45559;-71
2022/01/24 08:54:42;;;;;;;;;57.25;42.25;;;;;6.55;57.55;102674.81;5116362;27;45351;-72
2022/01/24 08:57:08;;;;;;;;;67.75;42.00;;;;;6.65;57.30;102685.31;5116169;27;45424;-73
2022/01/24 08:59:34;;;;;;;;;56.00;42.00;;;;;6.74;57.11;102687.72;5115195;27;46289;-72
2022/01/24 09:02:00;;;;;;;;;53.00;38.00;;;;;6.74;57.44;102693.94;5116235;27;45258;-71
2022/01/24 09:04:25;;;;;;;;;52.25;40.75;;;;;6.75;57.04;102706.44;5116510;27;45433;-70
2022/01/24 09:06:52;;;;;;;;;56.75;43.25;;;;;6.80;57.13;102707.69;5116252;27;45487;-71
2022/01/24 09:09:19;;;;;;;;;54.75;41.00;;;;;6.86;57.07;102712.50;5115777;27;45924;-71
2022/01/24 09:11:45;;;;;;;;;57.25;43.00;;;;;6.83;57.12;102701.69;5116178;27;45436;-72
2022/01/24 09:14:10;;;;;;;;;61.25;51.25;;;;;6.97;57.19;102714.22;5115773;27;45349;-71
2022/01/24 09:16:36;;;;;;;;;55.25;45.25;;;;;7.01;56.86;102710.06;5116160;27;45543;-72
2022/01/24 09:19:03;;;;;;;;;52.00;34.75;;;;;7.00;56.14;102698.50;5115588;27;45494;-72
2022/01/24 09:34:55;;;;;;;;;47.25;37.00;;;;;7.34;55.34;102682.31;5071982;27;1607231;-73
2022/01/24 09:37:20;;;;;;;;;48.25;35.00;;;;;7.49;55.38;102690.47;5105979;27;45547;-71
2022/01/24 09:39:45;;;;;;;;;39.25;32.00;;;;;7.63;54.71;102703.78;5106079;27;46406;-72
2022/01/24 09:42:11;;;;;;;;;46.75;38.25;;;;;7.57;55.22;102702.56;5109119;27;45603;-72
2022/01/24 09:44:36;;;;;;;;;48.00;37.25;;;;;7.29;55.10;102651.84;5106016;27;46561;-72
2022/01/24 09:47:02;;;;;;;;;59.00;43.75;;;;;7.22;55.26;102638.00;5106661;27;45576;-72
2022/01/24 09:49:27;;;;;;;;;52.75;42.25;;;;;7.35;55.50;102668.19;5103552;27;45542;-70
2022/01/24 09:51:53;;;;;;;;;47.25;37.25;;;;;7.63;55.41;102710.03;5098337;27;45590;-71
2022/01/24 09:54:18;;;;;;;;;49.75;38.00;;;;;7.03;54.77;102596.81;5101379;27;45884;-71
2022/01/24 09:56:44;;;;;;;;;48.25;38.75;;;;;7.69;54.78;102714.88;5100986;27;46160;-71
2022/01/24 09:59:09;;;;;;;;;50.75;38.00;;;;;7.22;54.73;102638.91;5106404;27;45539;-71
2022/01/24 10:01:35;;;;;;;;;40.50;35.00;;;;;7.71;55.19;102713.22;5110898;27;45502;-69
2022/01/24 10:04:07;;;;;;;;;52.25;38.25;;;;;7.56;54.57;102683.81;5106883;27;45962;-72
2022/01/24 10:06:58;;;;;;;;;47.25;36.75;;;;;7.73;55.30;102711.59;5110826;27;45683;-70
2022/01/24 10:09:35;;;;;;;;;49.75;37.50;;;;;7.72;54.76;102701.75;5109916;27;45553;-70
2022/01/24 10:17:53;;;;;;;;;56.25;43.50;;;;;7.79;54.05;102714.69;5103740;27;45517;-71
2022/01/24 10:20:25;;;;;;;;;56.25;44.75;;;;;7.84;54.14;102707.94;5094490;27;45904;-71
2022/01/24 10:23:05;;;;;;;;;55.25;42.00;;;;;7.89;54.22;102702.94;5109905;27;45598;-71
2022/01/24 10:25:31;;;;;;;;;66.00;50.75;;;;;7.87;54.23;102704.56;5105848;27;46160;-71
2022/01/24 10:28:02;;;;;;;;;61.75;44.00;;;;;7.90;54.78;102704.75;5105413;27;45655;-70
2022/01/24 10:30:28;;;;;;;;;60.25;43.25;;;;;7.97;53.91;102696.41;5102843;27;45505;-71
2022/01/24 10:32:55;;;;;;;;;67.00;50.50;;;;;7.75;54.02;102662.06;5103936;27;45669;-69
2022/01/24 10:35:45;;;;;;;;;59.75;47.00;;;;;8.05;53.99;102699.56;5082122;27;46287;-70
2022/01/24 10:43:49;;;;;;;;;49.75;41.75;;;;;8.12;53.78;102676.13;5094926;27;45727;-72
2022/01/24 10:46:25;;;;;;;;;55.75;44.75;;;;;8.30;54.04;102687.09;5096635;27;46319;-71
2022/01/24 10:49:01;;;;;;;;;50.75;39.50;;;;;7.82;53.58;102599.53;5090591;27;45520;-71
2022/01/24 10:51:26;;;;;;;;;43.75;34.50;;;;;8.38;53.34;102678.69;5091709;27;45435;-70
2022/01/24 10:53:55;;;;;;;;;54.50;42.50;;;;;8.41;53.41;102669.16;5090945;27;45558;-72
2022/01/24 10:56:29;;;;;;;;;46.00;38.00;;;;;8.51;53.26;102660.06;5087691;27;45825;-70
2022/01/24 10:59:02;;;;;;;;;47.75;38.00;;;;;8.65;52.36;102675.22;5092852;27;45781;-72
2022/01/24 11:01:28;;;;;;;;;44.00;37.75;;;;;8.53;53.25;102645.13;5082364;27;45842;-73
2022/01/24 11:04:02;;;;;;;;;54.00;42.75;;;;;8.77;52.00;102672.41;5094102;27;45428;-72
2022/01/24 11:06:29;;;;;;;;;52.75;41.75;;;;;8.82;52.07;102664.72;5095654;27;46064;-72
2022/01/24 11:09:40;;;;;;;;;55.00;39.75;;;;;8.82;51.96;102665.63;5091672;27;45423;-71
2022/01/24 11:12:12;;;;;;;;;46.50;37.00;;;;;8.84;52.60;102644.41;5064894;27;45511;-72
2022/01/24 11:14:40;;;;;;;;;67.00;50.25;;;;;8.79;52.22;102619.22;5095404;27;46045;-71
2022/01/24 11:17:08;;;;;;;;;46.00;39.50;;;;;8.94;51.99;102637.94;5090255;27;45663;-72
2022/01/24 11:22:01;;;;;;;;;43.50;37.00;;;;;9.21;51.12;102645.00;5086848;27;45703;-72
2022/01/24 11:24:54;;;;;;;;;44.50;35.75;;;;;9.22;51.89;102637.91;5090600;27;45951;-71
2022/01/24 11:27:14;;;;;;;;;53.75;40.50;;;;;9.12;50.77;102599.09;5088610;27;45978;-72
2022/01/24 11:29:39;;;;;;;;;51.75;37.25;;;;;9.20;50.98;102608.47;5090635;27;45686;-72
2022/01/24 11:32:15;;;;;;;;;51.25;38.00;;;;;9.45;50.72;102643.75;5093536;27;45825;-73
2022/01/24 11:34:42;;;;;;;;;48.25;41.00;;;;;9.52;51.04;102653.97;5095391;27;45793;-73
2022/01/24 11:37:08;;;;;;;;;51.00;37.25;;;;;9.35;50.03;102592.50;5091383;27;46068;-72
2022/01/24 11:39:35;;;;;;;;;46.75;37.50;;;;;8.97;50.00;102512.84;5089841;27;45437;-72
2022/01/24 11:42:02;;;;;;;;;43.25;35.50;;;;;9.69;49.92;102634.59;5088258;27;45824;-71
2022/01/24 11:44:46;;;;;;;;;50.25;36.00;;;;;9.69;50.13;102631.00;5087151;27;46193;-70
2022/01/24 11:47:22;;;;;;;;;42.50;35.50;;;;;9.32;49.94;102562.06;5081305;27;46159;-72
2022/01/24 11:49:52;;;;;;;;;41.00;34.75;;;;;9.68;49.71;102627.38;5085078;27;45494;-72
2022/01/24 11:52:18;;;;;;;;;48.75;33.50;;;;;9.72;49.22;102624.09;5091988;27;45465;-73
2022/01/24 11:54:46;;;;;;;;;42.50;32.00;;;;;9.84;48.81;102628.34;5096749;27;45354;-74
2022/01/24 11:57:37;;;;;;;;;37.25;30.25;;;;;9.78;48.79;102624.47;5090552;27;45507;-73
2022/01/24 12:00:03;;;;;;;;;34.50;31.00;;;;;9.76;48.38;102619.84;5098249;27;45391;-71
2022/01/24 12:02:31;;;;;;;;;24.00;22.00;;;;;9.77;47.92;102624.38;5090611;27;45468;-72
2022/01/24 12:05:10;;;;;;;;;35.50;23.75;;;;;9.68;48.73;102624.72;5086263;27;45444;-71
2022/01/24 12:07:50;;;;;;;;;37.00;30.00;;;;;9.14;48.72;102532.53;5091578;27;46451;-67
2022/01/24 12:10:25;;;;;;;;;40.00;27.50;;;;;9.55;48.86;102623.09;5086871;27;45820;-69
2022/01/24 12:12:54;;;;;;;;;30.25;30.25;;;;;9.57;48.46;102631.19;5093705;27;46007;-70
2022/01/24 12:15:37;;;;;;;;;23.75;20.00;;;;;9.53;48.27;102627.38;5090665;27;45446;-72
2022/01/24 12:18:09;;;;;;;;;32.50;27.00;;;;;9.48;48.96;102622.59;5095560;27;45487;-70
2022/01/24 12:20:37;;;;;;;;;30.00;27.50;;;;;9.58;48.87;102622.34;5094923;27;45390;-72
2022/01/24 12:23:25;;;;;;;;;34.00;27.75;;;;;9.67;48.28;102628.25;5085951;27;45552;-70
2022/01/24 12:26:21;;;;;;;;;36.00;25.50;;;;;9.71;49.19;102619.56;5096063;27;45475;-70
2022/01/24 12:28:50;;;;;;;;;38.50;29.75;;;;;9.71;48.01;102614.22;5086041;27;45903;-71
2022/01/24 12:31:20;;;;;;;;;31.50;27.50;;;;;9.66;48.92;102614.81;5081435;27;45469;-70
2022/01/24 12:33:54;;;;;;;;;33.25;28.75;;;;;9.64;48.95;102609.38;5090778;27;45654;-72
2022/01/24 12:36:52;;;;;;;;;36.75;28.00;;;;;9.70;49.20;102617.75;5098075;27;45485;-73
2022/01/24 12:39:23;;;;;;;;;34.50;27.75;;;;;9.76;48.38;102627.88;5077735;27;47215;-65
2022/01/24 12:41:58;;;;;;;;;32.25;29.50;;;;;9.70;48.34;102606.13;5094535;27;45543;-69
2022/01/24 12:47:18;;;;;;;;;43.75;31.75;;;;;9.68;48.49;102602.47;5097777;27;45480;-69
2022/01/24 12:49:46;;;;;;;;;33.00;29.50;;;;;9.74;48.98;102610.84;5082913;27;45966;-68
2022/01/24 12:52:14;;;;;;;;;34.00;28.75;;;;;9.65;48.59;102604.94;5085942;27;45678;-67
2022/01/24 12:54:42;;;;;;;;;33.75;27.00;;;;;9.54;49.26;102590.97;5083007;27;45501;-67
2022/01/24 12:57:14;;;;;;;;;37.75;32.75;;;;;9.62;48.74;102611.03;5087192;27;45551;-68
2022/01/24 12:59:51;;;;;;;;;35.75;29.00;;;;;9.23;48.82;102542.00;5089884;27;46081;-69
2022/01/24 13:02:24;;;;;;;;;35.00;28.50;;;;;9.58;49.51;102609.00;5087614;27;45569;-68
2022/01/24 13:04:52;;;;;;;;;40.75;28.50;;;;;9.58;48.85;102603.66;5093998;27;45587;-68
2022/01/24 13:07:18;;;;;;;;;39.75;34.25;;;;;9.60;48.77;102610.00;5097352;27;45600;-69
2022/01/24 13:09:43;;;;;;;;;34.25;33.25;;;;;9.49;49.14;102582.69;5093198;27;46372;-69
2022/01/24 13:12:10;;;;;;;;;43.25;33.75;;;;;9.70;48.48;102607.06;5081961;27;46249;-66
2022/01/24 13:14:49;;;;;;;;;29.75;27.25;;;;;9.45;49.48;102563.72;5081884;27;45691;-66
2022/01/24 13:23:02;;;;;;;;;36.75;31.75;;;;;9.52;49.67;102574.88;5094331;27;45653;-66
2022/01/24 13:25:46;;;;;;;;;29.75;21.00;;;;;9.69;48.88;102594.53;5090291;27;45653;-67
2022/01/24 13:28:14;;;;;;;;;32.75;30.50;;;;;9.51;49.23;102566.78;5091539;27;45660;-67
2022/01/24 13:30:45;;;;;;;;;34.50;27.50;;;;;9.66;49.72;102591.69;5089025;27;45844;-66
2022/01/24 13:33:13;;;;;;;;;33.50;24.50;;;;;9.65;48.86;102595.22;5085128;27;45448;-65
2022/01/24 13:35:45;;;;;;;;;29.00;25.50;;;;;9.52;49.15;102557.91;5061965;27;45768;-66
2022/01/24 13:38:21;;;;;;;;;35.00;27.00;;;;;9.61;49.35;102577.16;5081544;27;46045;-67
2022/01/24 13:41:11;;;;;;;;;37.25;26.50;;;;;9.60;49.88;102588.66;5085332;27;46759;-66
2022/01/24 13:43:45;;;;;;;;;30.50;25.25;;;;;9.62;50.02;102581.69;5092953;27;45855;-66
2022/01/24 13:46:18;;;;;;;;;32.75;29.50;;;;;9.63;49.83;102583.50;5092679;27;45992;-66
2022/01/24 13:48:49;;;;;;;;;41.00;31.50;;;;;9.53;49.72;102563.34;5091202;27;45403;-67